Terminal Aerodrome Forecast
Issued by NWS

Home | Current Version | Previous Version | Text Only | Print | Product List | Glossary Off
Versions: 1 2 3 4 5 6 7 8 9 10 11 12 13

000
FTUS42 KMHX 030843 AAA
TAFISO
TAF AMD
KISO 030843Z 0309/0406 00000KT 1 1/2SM BR VV007
     FM031030 00000KT 4SM BR SKC
     FM031200 26005KT P6SM FEW060
      AMD LTD TO CLD VIS AND WIND=

USA.gov is the U.S. government's official web portal to all federal, state and local government web resources and services.